sensor_id;sensor_type;location;lat;lon;timestamp;P1;durP1;ratioP1;P2;durP2;ratioP2
16127;SDS011;8168;49.036;7.690;2023-07-02T00:02:12;2.37;;;1.83;;
16127;SDS011;8168;49.036;7.690;2023-07-02T00:04:43;2.67;;;2.23;;
16127;SDS011;8168;49.036;7.690;2023-07-02T00:07:13;2.90;;;1.83;;
16127;SDS011;8168;49.036;7.690;2023-07-02T00:09:44;2.03;;;1.70;;
16127;SDS011;8168;49.036;7.690;2023-07-02T00:12:15;1.70;;;1.60;;
16127;SDS011;8168;49.036;7.690;2023-07-02T00:14:46;2.47;;;1.97;;
16127;SDS011;8168;49.036;7.690;2023-07-02T00:17:16;2.40;;;1.67;;
16127;SDS011;8168;49.036;7.690;2023-07-02T00:19:47;2.50;;;1.97;;
16127;SDS011;8168;49.036;7.690;2023-07-02T00:22:21;2.17;;;1.97;;
16127;SDS011;8168;49.036;7.690;2023-07-02T00:24:52;1.80;;;1.70;;
16127;SDS011;8168;49.036;7.690;2023-07-02T00:27:25;2.40;;;2.20;;
16127;SDS011;8168;49.036;7.690;2023-07-02T00:29:56;3.37;;;2.03;;
16127;SDS011;8168;49.036;7.690;2023-07-02T00:32:27;1.90;;;1.70;;
16127;SDS011;8168;49.036;7.690;2023-07-02T00:34:57;1.60;;;1.50;;
16127;SDS011;8168;49.036;7.690;2023-07-02T00:37:28;1.73;;;1.40;;
16127;SDS011;8168;49.036;7.690;2023-07-02T00:39:59;3.30;;;1.87;;
16127;SDS011;8168;49.036;7.690;2023-07-02T00:42:30;1.90;;;1.70;;
16127;SDS011;8168;49.036;7.690;2023-07-02T00:45:01;2.53;;;1.90;;
16127;SDS011;8168;49.036;7.690;2023-07-02T00:47:34;3.00;;;2.27;;
16127;SDS011;8168;49.036;7.690;2023-07-02T00:50:05;2.53;;;2.33;;
16127;SDS011;8168;49.036;7.690;2023-07-02T00:52:39;2.30;;;2.10;;
16127;SDS011;8168;49.036;7.690;2023-07-02T00:55:09;1.77;;;1.67;;
16127;SDS011;8168;49.036;7.690;2023-07-02T00:57:40;2.20;;;2.00;;
16127;SDS011;8168;49.036;7.690;2023-07-02T01:00:11;2.00;;;1.80;;
16127;SDS011;8168;49.036;7.690;2023-07-02T01:02:43;2.20;;;2.00;;
16127;SDS011;8168;49.036;7.690;2023-07-02T01:05:28;2.87;;;2.30;;
16127;SDS011;8168;49.036;7.690;2023-07-02T01:08:05;2.67;;;2.10;;
16127;SDS011;8168;49.036;7.690;2023-07-02T01:10:36;4.00;;;2.03;;
16127;SDS011;8168;49.036;7.690;2023-07-02T01:13:11;2.23;;;2.00;;
16127;SDS011;8168;49.036;7.690;2023-07-02T01:15:44;2.60;;;2.30;;
16127;SDS011;8168;49.036;7.690;2023-07-02T01:18:16;2.43;;;2.20;;
16127;SDS011;8168;49.036;7.690;2023-07-02T01:20:47;3.43;;;3.00;;
16127;SDS011;8168;49.036;7.690;2023-07-02T01:23:18;4.07;;;2.80;;
16127;SDS011;8168;49.036;7.690;2023-07-02T01:25:51;3.33;;;2.57;;
16127;SDS011;8168;49.036;7.690;2023-07-02T01:28:21;3.73;;;2.60;;
16127;SDS011;8168;49.036;7.690;2023-07-02T01:30:54;4.33;;;2.70;;
16127;SDS011;8168;49.036;7.690;2023-07-02T01:33:25;3.67;;;2.83;;
16127;SDS011;8168;49.036;7.690;2023-07-02T01:35:55;4.23;;;2.73;;
16127;SDS011;8168;49.036;7.690;2023-07-02T01:38:26;3.30;;;2.67;;
16127;SDS011;8168;49.036;7.690;2023-07-02T01:40:57;3.30;;;2.67;;
16127;SDS011;8168;49.036;7.690;2023-07-02T01:43:28;4.90;;;2.93;;
16127;SDS011;8168;49.036;7.690;2023-07-02T01:45:59;3.60;;;2.57;;
16127;SDS011;8168;49.036;7.690;2023-07-02T01:48:31;3.10;;;2.80;;
16127;SDS011;8168;49.036;7.690;2023-07-02T01:51:02;4.00;;;2.90;;
16127;SDS011;8168;49.036;7.690;2023-07-02T01:53:32;2.70;;;2.27;;
16127;SDS011;8168;49.036;7.690;2023-07-02T01:56:03;4.40;;;2.80;;
16127;SDS011;8168;49.036;7.690;2023-07-02T01:58:34;4.50;;;2.60;;
16127;SDS011;8168;49.036;7.690;2023-07-02T02:01:04;3.27;;;2.70;;
16127;SDS011;8168;49.036;7.690;2023-07-02T02:03:35;4.50;;;2.93;;
16127;SDS011;8168;49.036;7.690;2023-07-02T02:06:05;3.27;;;2.50;;
16127;SDS011;8168;49.036;7.690;2023-07-02T02:08:36;3.47;;;2.60;;
16127;SDS011;8168;49.036;7.690;2023-07-02T02:11:06;4.50;;;2.93;;
16127;SDS011;8168;49.036;7.690;2023-07-02T02:13:37;5.43;;;2.70;;
16127;SDS011;8168;49.036;7.690;2023-07-02T02:16:08;3.50;;;2.73;;
16127;SDS011;8168;49.036;7.690;2023-07-02T02:18:38;3.80;;;2.83;;
16127;SDS011;8168;49.036;7.690;2023-07-02T02:21:09;3.77;;;2.80;;
16127;SDS011;8168;49.036;7.690;2023-07-02T02:23:39;4.17;;;3.03;;
16127;SDS011;8168;49.036;7.690;2023-07-02T02:26:10;3.63;;;2.60;;
16127;SDS011;8168;49.036;7.690;2023-07-02T02:28:42;5.50;;;2.50;;
16127;SDS011;8168;49.036;7.690;2023-07-02T02:31:13;2.67;;;2.47;;
16127;SDS011;8168;49.036;7.690;2023-07-02T02:33:43;3.47;;;2.67;;
16127;SDS011;8168;49.036;7.690;2023-07-02T02:36:14;2.93;;;2.63;;
16127;SDS011;8168;49.036;7.690;2023-07-02T02:38:45;3.73;;;3.03;;
16127;SDS011;8168;49.036;7.690;2023-07-02T02:41:16;4.53;;;2.90;;
16127;SDS011;8168;49.036;7.690;2023-07-02T02:43:47;4.03;;;2.70;;
16127;SDS011;8168;49.036;7.690;2023-07-02T02:46:21;4.37;;;3.20;;
16127;SDS011;8168;49.036;7.690;2023-07-02T02:48:52;3.07;;;2.60;;
16127;SDS011;8168;49.036;7.690;2023-07-02T02:51:23;3.73;;;2.80;;
16127;SDS011;8168;49.036;7.690;2023-07-02T02:53:53;3.57;;;2.63;;
16127;SDS011;8168;49.036;7.690;2023-07-02T02:56:24;3.40;;;2.83;;
16127;SDS011;8168;49.036;7.690;2023-07-02T02:58:55;3.10;;;2.80;;
16127;SDS011;8168;49.036;7.690;2023-07-02T03:01:25;3.23;;;2.63;;
16127;SDS011;8168;49.036;7.690;2023-07-02T03:04:00;4.37;;;2.83;;
16127;SDS011;8168;49.036;7.690;2023-07-02T03:06:31;6.20;;;2.40;;
16127;SDS011;8168;49.036;7.690;2023-07-02T03:09:02;4.60;;;2.47;;
16127;SDS011;8168;49.036;7.690;2023-07-02T03:11:32;4.93;;;3.10;;
16127;SDS011;8168;49.036;7.690;2023-07-02T03:14:06;4.00;;;2.63;;
16127;SDS011;8168;49.036;7.690;2023-07-02T03:16:36;3.57;;;3.00;;
16127;SDS011;8168;49.036;7.690;2023-07-02T03:19:07;2.90;;;2.60;;
16127;SDS011;8168;49.036;7.690;2023-07-02T03:21:38;4.53;;;2.80;;
16127;SDS011;8168;49.036;7.690;2023-07-02T03:24:08;3.47;;;2.47;;
16127;SDS011;8168;49.036;7.690;2023-07-02T03:26:43;3.27;;;2.63;;
16127;SDS011;8168;49.036;7.690;2023-07-02T03:29:14;4.03;;;2.67;;
16127;SDS011;8168;49.036;7.690;2023-07-02T03:31:50;3.20;;;2.80;;
16127;SDS011;8168;49.036;7.690;2023-07-02T03:34:21;4.77;;;2.80;;
16127;SDS011;8168;49.036;7.690;2023-07-02T03:36:54;4.50;;;2.63;;
16127;SDS011;8168;49.036;7.690;2023-07-02T03:39:25;3.43;;;2.70;;
16127;SDS011;8168;49.036;7.690;2023-07-02T03:41:55;4.87;;;2.83;;
16127;SDS011;8168;49.036;7.690;2023-07-02T03:44:26;4.00;;;2.50;;
16127;SDS011;8168;49.036;7.690;2023-07-02T03:46:57;4.23;;;2.87;;
16127;SDS011;8168;49.036;7.690;2023-07-02T03:49:27;3.80;;;2.40;;
16127;SDS011;8168;49.036;7.690;2023-07-02T03:51:59;3.07;;;2.77;;
16127;SDS011;8168;49.036;7.690;2023-07-02T03:54:29;3.17;;;2.87;;
16127;SDS011;8168;49.036;7.690;2023-07-02T03:57:00;4.70;;;2.93;;
16127;SDS011;8168;49.036;7.690;2023-07-02T03:59:30;3.63;;;3.10;;
16127;SDS011;8168;49.036;7.690;2023-07-02T04:02:04;3.53;;;3.00;;
16127;SDS011;8168;49.036;7.690;2023-07-02T04:04:35;3.57;;;3.20;;
16127;SDS011;8168;49.036;7.690;2023-07-02T04:07:06;5.03;;;3.30;;
16127;SDS011;8168;49.036;7.690;2023-07-02T04:09:36;5.30;;;2.73;;
16127;SDS011;8168;49.036;7.690;2023-07-02T04:12:07;5.43;;;3.07;;
16127;SDS011;8168;49.036;7.690;2023-07-02T04:14:38;6.43;;;3.30;;
16127;SDS011;8168;49.036;7.690;2023-07-02T04:17:08;10.23;;;3.77;;
16127;SDS011;8168;49.036;7.690;2023-07-02T04:19:39;7.60;;;3.77;;
16127;SDS011;8168;49.036;7.690;2023-07-02T04:22:09;6.23;;;3.40;;
16127;SDS011;8168;49.036;7.690;2023-07-02T04:24:40;3.80;;;3.30;;
16127;SDS011;8168;49.036;7.690;2023-07-02T04:27:11;6.50;;;3.53;;
16127;SDS011;8168;49.036;7.690;2023-07-02T04:29:43;4.17;;;3.50;;
16127;SDS011;8168;49.036;7.690;2023-07-02T04:32:14;8.60;;;3.80;;
16127;SDS011;8168;49.036;7.690;2023-07-02T04:34:45;6.03;;;3.63;;
16127;SDS011;8168;49.036;7.690;2023-07-02T04:37:15;6.47;;;3.53;;
16127;SDS011;8168;49.036;7.690;2023-07-02T04:39:46;4.87;;;3.83;;
16127;SDS011;8168;49.036;7.690;2023-07-02T04:42:17;6.30;;;3.80;;
16127;SDS011;8168;49.036;7.690;2023-07-02T04:44:47;6.20;;;3.40;;
16127;SDS011;8168;49.036;7.690;2023-07-02T04:47:18;7.20;;;4.20;;
16127;SDS011;8168;49.036;7.690;2023-07-02T04:49:49;4.43;;;3.50;;
16127;SDS011;8168;49.036;7.690;2023-07-02T04:52:19;4.63;;;3.83;;
16127;SDS011;8168;49.036;7.690;2023-07-02T04:54:50;5.63;;;3.60;;
16127;SDS011;8168;49.036;7.690;2023-07-02T04:57:21;6.13;;;3.80;;
16127;SDS011;8168;49.036;7.690;2023-07-02T04:59:51;5.73;;;3.87;;
16127;SDS011;8168;49.036;7.690;2023-07-02T05:02:22;6.50;;;3.70;;
16127;SDS011;8168;49.036;7.690;2023-07-02T05:04:52;5.37;;;3.17;;
16127;SDS011;8168;49.036;7.690;2023-07-02T05:07:23;5.53;;;3.47;;
16127;SDS011;8168;49.036;7.690;2023-07-02T05:09:54;6.00;;;3.23;;
16127;SDS011;8168;49.036;7.690;2023-07-02T05:12:24;6.40;;;3.43;;
16127;SDS011;8168;49.036;7.690;2023-07-02T05:14:55;7.03;;;3.27;;
16127;SDS011;8168;49.036;7.690;2023-07-02T05:17:25;6.67;;;3.77;;
16127;SDS011;8168;49.036;7.690;2023-07-02T05:19:56;5.70;;;2.90;;
16127;SDS011;8168;49.036;7.690;2023-07-02T05:22:27;4.77;;;3.30;;
16127;SDS011;8168;49.036;7.690;2023-07-02T05:24:57;6.40;;;3.37;;
16127;SDS011;8168;49.036;7.690;2023-07-02T05:27:28;4.37;;;3.13;;
16127;SDS011;8168;49.036;7.690;2023-07-02T05:29:59;6.47;;;3.40;;
16127;SDS011;8168;49.036;7.690;2023-07-02T05:32:29;4.97;;;3.50;;
16127;SDS011;8168;49.036;7.690;2023-07-02T05:35:00;8.20;;;3.93;;
16127;SDS011;8168;49.036;7.690;2023-07-02T05:37:30;7.83;;;4.10;;
16127;SDS011;8168;49.036;7.690;2023-07-02T05:40:01;8.13;;;4.07;;
16127;SDS011;8168;49.036;7.690;2023-07-02T05:42:32;6.87;;;5.00;;
16127;SDS011;8168;49.036;7.690;2023-07-02T05:45:02;6.37;;;4.07;;
16127;SDS011;8168;49.036;7.690;2023-07-02T05:47:33;10.37;;;4.63;;
16127;SDS011;8168;49.036;7.690;2023-07-02T05:50:05;9.60;;;5.03;;
16127;SDS011;8168;49.036;7.690;2023-07-02T05:52:37;9.17;;;4.77;;
16127;SDS011;8168;49.036;7.690;2023-07-02T05:55:08;9.27;;;5.00;;
16127;SDS011;8168;49.036;7.690;2023-07-02T05:57:41;12.30;;;5.43;;
16127;SDS011;8168;49.036;7.690;2023-07-02T06:00:12;10.33;;;5.43;;
16127;SDS011;8168;49.036;7.690;2023-07-02T06:02:45;10.60;;;5.70;;
16127;SDS011;8168;49.036;7.690;2023-07-02T06:05:16;11.00;;;5.83;;
16127;SDS011;8168;49.036;7.690;2023-07-02T06:07:47;10.23;;;5.97;;
16127;SDS011;8168;49.036;7.690;2023-07-02T06:10:17;11.73;;;6.70;;
16127;SDS011;8168;49.036;7.690;2023-07-02T06:12:48;10.23;;;6.13;;
16127;SDS011;8168;49.036;7.690;2023-07-02T06:15:19;12.53;;;6.27;;
16127;SDS011;8168;49.036;7.690;2023-07-02T06:17:49;16.30;;;7.90;;
16127;SDS011;8168;49.036;7.690;2023-07-02T06:20:20;15.27;;;7.90;;
16127;SDS011;8168;49.036;7.690;2023-07-02T06:22:50;14.27;;;7.20;;
16127;SDS011;8168;49.036;7.690;2023-07-02T06:25:21;15.60;;;7.90;;
16127;SDS011;8168;49.036;7.690;2023-07-02T06:27:52;13.07;;;7.10;;
16127;SDS011;8168;49.036;7.690;2023-07-02T06:30:25;13.53;;;7.87;;
16127;SDS011;8168;49.036;7.690;2023-07-02T06:32:56;14.67;;;7.40;;
16127;SDS011;8168;49.036;7.690;2023-07-02T06:35:27;12.30;;;7.60;;
16127;SDS011;8168;49.036;7.690;2023-07-02T06:37:57;15.90;;;8.33;;
16127;SDS011;8168;49.036;7.690;2023-07-02T06:40:28;10.90;;;6.77;;
16127;SDS011;8168;49.036;7.690;2023-07-02T06:42:58;13.00;;;7.47;;
16127;SDS011;8168;49.036;7.690;2023-07-02T06:45:29;19.67;;;8.07;;
16127;SDS011;8168;49.036;7.690;2023-07-02T06:47:59;14.03;;;8.33;;
16127;SDS011;8168;49.036;7.690;2023-07-02T06:50:30;12.53;;;8.10;;
16127;SDS011;8168;49.036;7.690;2023-07-02T06:53:01;17.77;;;9.17;;
16127;SDS011;8168;49.036;7.690;2023-07-02T06:55:31;15.93;;;9.27;;
16127;SDS011;8168;49.036;7.690;2023-07-02T06:58:02;17.37;;;8.97;;
16127;SDS011;8168;49.036;7.690;2023-07-02T07:00:35;15.00;;;8.50;;
16127;SDS011;8168;49.036;7.690;2023-07-02T07:03:06;17.43;;;9.83;;
16127;SDS011;8168;49.036;7.690;2023-07-02T07:05:36;15.97;;;8.70;;
16127;SDS011;8168;49.036;7.690;2023-07-02T07:08:07;16.70;;;8.90;;
16127;SDS011;8168;49.036;7.690;2023-07-02T07:10:38;17.40;;;9.57;;
16127;SDS011;8168;49.036;7.690;2023-07-02T07:13:08;16.57;;;10.00;;
16127;SDS011;8168;49.036;7.690;2023-07-02T07:15:39;15.57;;;9.97;;
16127;SDS011;8168;49.036;7.690;2023-07-02T07:18:10;16.93;;;10.10;;
16127;SDS011;8168;49.036;7.690;2023-07-02T07:20:41;16.33;;;9.77;;
16127;SDS011;8168;49.036;7.690;2023-07-02T07:23:12;16.87;;;10.37;;
16127;SDS011;8168;49.036;7.690;2023-07-02T07:25:42;16.83;;;10.63;;
16127;SDS011;8168;49.036;7.690;2023-07-02T07:28:13;18.03;;;10.77;;
16127;SDS011;8168;49.036;7.690;2023-07-02T07:30:46;17.03;;;10.50;;
16127;SDS011;8168;49.036;7.690;2023-07-02T07:33:17;18.10;;;10.03;;
16127;SDS011;8168;49.036;7.690;2023-07-02T07:35:48;19.57;;;10.57;;
16127;SDS011;8168;49.036;7.690;2023-07-02T07:38:18;17.53;;;10.30;;
16127;SDS011;8168;49.036;7.690;2023-07-02T07:40:49;17.27;;;10.50;;
16127;SDS011;8168;49.036;7.690;2023-07-02T07:43:20;17.97;;;9.97;;
16127;SDS011;8168;49.036;7.690;2023-07-02T07:45:50;14.77;;;9.83;;
16127;SDS011;8168;49.036;7.690;2023-07-02T07:48:21;17.67;;;10.80;;
16127;SDS011;8168;49.036;7.690;2023-07-02T07:50:52;19.50;;;11.30;;
16127;SDS011;8168;49.036;7.690;2023-07-02T07:53:22;18.30;;;11.13;;
16127;SDS011;8168;49.036;7.690;2023-07-02T07:55:53;22.33;;;11.47;;
16127;SDS011;8168;49.036;7.690;2023-07-02T07:58:25;18.93;;;10.67;;
16127;SDS011;8168;49.036;7.690;2023-07-02T08:00:55;22.67;;;11.13;;
16127;SDS011;8168;49.036;7.690;2023-07-02T08:03:26;23.00;;;10.93;;
16127;SDS011;8168;49.036;7.690;2023-07-02T08:05:56;19.40;;;11.20;;
16127;SDS011;8168;49.036;7.690;2023-07-02T08:08:27;19.80;;;11.20;;
16127;SDS011;8168;49.036;7.690;2023-07-02T08:10:58;23.10;;;10.50;;
16127;SDS011;8168;49.036;7.690;2023-07-02T08:13:28;17.83;;;11.10;;
16127;SDS011;8168;49.036;7.690;2023-07-02T08:15:59;20.80;;;10.87;;
16127;SDS011;8168;49.036;7.690;2023-07-02T08:18:29;18.67;;;10.83;;
16127;SDS011;8168;49.036;7.690;2023-07-02T08:21:00;20.03;;;10.93;;
16127;SDS011;8168;49.036;7.690;2023-07-02T08:23:31;21.03;;;11.27;;
16127;SDS011;8168;49.036;7.690;2023-07-02T08:26:01;17.33;;;10.70;;
16127;SDS011;8168;49.036;7.690;2023-07-02T08:28:33;21.53;;;11.73;;
16127;SDS011;8168;49.036;7.690;2023-07-02T08:31:03;20.87;;;11.67;;
16127;SDS011;8168;49.036;7.690;2023-07-02T08:33:34;20.43;;;10.60;;
16127;SDS011;8168;49.036;7.690;2023-07-02T08:36:05;20.50;;;11.57;;
16127;SDS011;8168;49.036;7.690;2023-07-02T08:38:35;21.00;;;11.47;;
16127;SDS011;8168;49.036;7.690;2023-07-02T08:41:09;17.93;;;11.83;;
16127;SDS011;8168;49.036;7.690;2023-07-02T08:43:40;21.17;;;11.93;;
16127;SDS011;8168;49.036;7.690;2023-07-02T08:46:11;23.60;;;11.97;;
16127;SDS011;8168;49.036;7.690;2023-07-02T08:48:42;18.30;;;11.50;;
16127;SDS011;8168;49.036;7.690;2023-07-02T08:51:12;22.60;;;12.10;;
16127;SDS011;8168;49.036;7.690;2023-07-02T08:53:43;20.40;;;11.43;;
16127;SDS011;8168;49.036;7.690;2023-07-02T08:56:14;24.47;;;13.10;;
16127;SDS011;8168;49.036;7.690;2023-07-02T08:58:44;21.90;;;12.23;;
16127;SDS011;8168;49.036;7.690;2023-07-02T09:01:15;22.33;;;12.50;;
16127;SDS011;8168;49.036;7.690;2023-07-02T09:03:46;21.47;;;11.57;;
16127;SDS011;8168;49.036;7.690;2023-07-02T09:06:17;22.60;;;12.13;;
16127;SDS011;8168;49.036;7.690;2023-07-02T09:08:48;20.73;;;11.87;;
16127;SDS011;8168;49.036;7.690;2023-07-02T09:11:19;23.33;;;12.87;;
16127;SDS011;8168;49.036;7.690;2023-07-02T09:13:50;19.53;;;11.90;;
16127;SDS011;8168;49.036;7.690;2023-07-02T09:16:30;17.37;;;10.97;;
16127;SDS011;8168;49.036;7.690;2023-07-02T09:19:07;19.97;;;11.03;;
16127;SDS011;8168;49.036;7.690;2023-07-02T09:21:40;19.13;;;11.63;;
16127;SDS011;8168;49.036;7.690;2023-07-02T09:24:12;23.20;;;12.30;;
16127;SDS011;8168;49.036;7.690;2023-07-02T09:26:43;19.23;;;11.70;;
16127;SDS011;8168;49.036;7.690;2023-07-02T09:29:25;21.47;;;11.47;;
16127;SDS011;8168;49.036;7.690;2023-07-02T09:32:03;20.00;;;11.70;;
16127;SDS011;8168;49.036;7.690;2023-07-02T09:34:38;20.60;;;11.03;;
16127;SDS011;8168;49.036;7.690;2023-07-02T09:37:11;16.93;;;10.93;;
16127;SDS011;8168;49.036;7.690;2023-07-02T09:39:42;14.00;;;9.07;;
16127;SDS011;8168;49.036;7.690;2023-07-02T09:42:13;18.17;;;10.93;;
16127;SDS011;8168;49.036;7.690;2023-07-02T09:44:44;21.37;;;10.50;;
16127;SDS011;8168;49.036;7.690;2023-07-02T09:47:17;16.47;;;9.83;;
16127;SDS011;8168;49.036;7.690;2023-07-02T09:49:49;20.50;;;10.90;;
16127;SDS011;8168;49.036;7.690;2023-07-02T09:52:23;17.50;;;10.70;;
16127;SDS011;8168;49.036;7.690;2023-07-02T09:54:57;19.07;;;11.23;;
16127;SDS011;8168;49.036;7.690;2023-07-02T09:57:28;20.50;;;11.50;;
16127;SDS011;8168;49.036;7.690;2023-07-02T10:00:01;18.17;;;9.50;;
16127;SDS011;8168;49.036;7.690;2023-07-02T10:02:32;21.00;;;11.02;;
16127;SDS011;8168;49.036;7.690;2023-07-02T10:05:03;17.37;;;10.57;;
16127;SDS011;8168;49.036;7.690;2023-07-02T10:07:34;20.90;;;11.35;;
16127;SDS011;8168;49.036;7.690;2023-07-02T10:10:05;19.70;;;10.70;;
16127;SDS011;8168;49.036;7.690;2023-07-02T10:12:45;21.63;;;11.90;;
16127;SDS011;8168;49.036;7.690;2023-07-02T10:15:24;21.27;;;11.37;;
16127;SDS011;8168;49.036;7.690;2023-07-02T10:17:59;18.42;;;10.45;;
16127;SDS011;8168;49.036;7.690;2023-07-02T10:20:36;19.30;;;10.60;;
16127;SDS011;8168;49.036;7.690;2023-07-02T10:23:09;18.73;;;10.55;;
16127;SDS011;8168;49.036;7.690;2023-07-02T10:25:40;18.67;;;10.70;;
16127;SDS011;8168;49.036;7.690;2023-07-02T10:28:14;17.77;;;11.15;;
16127;SDS011;8168;49.036;7.690;2023-07-02T10:30:49;20.63;;;11.40;;
16127;SDS011;8168;49.036;7.690;2023-07-02T10:33:22;17.37;;;10.00;;
16127;SDS011;8168;49.036;7.690;2023-07-02T10:35:54;17.60;;;9.60;;
16127;SDS011;8168;49.036;7.690;2023-07-02T10:38:24;16.27;;;10.30;;
16127;SDS011;8168;49.036;7.690;2023-07-02T10:40:57;19.00;;;10.88;;
16127;SDS011;8168;49.036;7.690;2023-07-02T10:43:29;20.42;;;10.77;;
16127;SDS011;8168;49.036;7.690;2023-07-02T10:46:02;22.65;;;11.63;;
16127;SDS011;8168;49.036;7.690;2023-07-02T10:48:32;18.73;;;11.27;;
16127;SDS011;8168;49.036;7.690;2023-07-02T10:51:10;18.02;;;10.93;;
16127;SDS011;8168;49.036;7.690;2023-07-02T10:53:43;18.13;;;10.97;;
16127;SDS011;8168;49.036;7.690;2023-07-02T10:56:16;19.52;;;11.13;;
16127;SDS011;8168;49.036;7.690;2023-07-02T10:58:47;16.80;;;11.10;;
16127;SDS011;8168;49.036;7.690;2023-07-02T11:01:21;21.58;;;11.70;;
16127;SDS011;8168;49.036;7.690;2023-07-02T11:03:57;22.55;;;12.38;;
16127;SDS011;8168;49.036;7.690;2023-07-02T11:06:29;23.95;;;11.82;;
16127;SDS011;8168;49.036;7.690;2023-07-02T11:09:02;18.67;;;11.18;;
16127;SDS011;8168;49.036;7.690;2023-07-02T11:11:33;18.95;;;11.52;;
16127;SDS011;8168;49.036;7.690;2023-07-02T11:14:04;18.70;;;11.40;;
16127;SDS011;8168;49.036;7.690;2023-07-02T11:16:35;17.92;;;11.65;;
16127;SDS011;8168;49.036;7.690;2023-07-02T11:19:06;20.10;;;11.88;;
16127;SDS011;8168;49.036;7.690;2023-07-02T11:21:38;19.38;;;11.85;;
16127;SDS011;8168;49.036;7.690;2023-07-02T11:24:26;20.83;;;12.25;;
16127;SDS011;8168;49.036;7.690;2023-07-02T11:26:59;16.80;;;11.18;;
16127;SDS011;8168;49.036;7.690;2023-07-02T11:29:31;20.25;;;11.98;;
16127;SDS011;8168;49.036;7.690;2023-07-02T11:32:09;29.80;;;11.30;;
16127;SDS011;8168;49.036;7.690;2023-07-02T11:34:41;24.25;;;11.57;;
16127;SDS011;8168;49.036;7.690;2023-07-02T11:37:11;16.90;;;10.68;;
16127;SDS011;8168;49.036;7.690;2023-07-02T11:39:43;17.83;;;9.77;;
16127;SDS011;8168;49.036;7.690;2023-07-02T11:42:13;17.45;;;10.30;;
16127;SDS011;8168;49.036;7.690;2023-07-02T11:44:44;19.27;;;10.95;;
16127;SDS011;8168;49.036;7.690;2023-07-02T11:47:15;19.50;;;11.10;;
16127;SDS011;8168;49.036;7.690;2023-07-02T11:49:45;17.23;;;10.25;;
16127;SDS011;8168;49.036;7.690;2023-07-02T11:52:16;19.27;;;11.02;;
16127;SDS011;8168;49.036;7.690;2023-07-02T11:54:46;18.55;;;11.00;;
16127;SDS011;8168;49.036;7.690;2023-07-02T11:57:18;17.75;;;9.82;;
16127;SDS011;8168;49.036;7.690;2023-07-02T11:59:49;18.83;;;11.27;;
16127;SDS011;8168;49.036;7.690;2023-07-02T12:02:22;19.65;;;11.07;;
16127;SDS011;8168;49.036;7.690;2023-07-02T12:04:52;16.35;;;8.95;;
16127;SDS011;8168;49.036;7.690;2023-07-02T12:07:23;17.60;;;10.75;;
16127;SDS011;8168;49.036;7.690;2023-07-02T12:09:55;13.95;;;8.68;;
16127;SDS011;8168;49.036;7.690;2023-07-02T12:12:26;19.25;;;10.27;;
16127;SDS011;8168;49.036;7.690;2023-07-02T12:14:56;16.40;;;10.38;;
16127;SDS011;8168;49.036;7.690;2023-07-02T12:17:27;15.68;;;10.75;;
16127;SDS011;8168;49.036;7.690;2023-07-02T12:19:57;17.88;;;8.48;;
16127;SDS011;8168;49.036;7.690;2023-07-02T12:22:28;19.58;;;11.05;;
16127;SDS011;8168;49.036;7.690;2023-07-02T12:24:59;18.67;;;9.50;;
16127;SDS011;8168;49.036;7.690;2023-07-02T12:27:30;18.83;;;10.32;;
16127;SDS011;8168;49.036;7.690;2023-07-02T12:30:00;17.40;;;9.93;;
16127;SDS011;8168;49.036;7.690;2023-07-02T12:32:31;17.33;;;8.90;;
16127;SDS011;8168;49.036;7.690;2023-07-02T12:35:02;14.60;;;10.07;;
16127;SDS011;8168;49.036;7.690;2023-07-02T12:37:33;15.68;;;9.18;;
16127;SDS011;8168;49.036;7.690;2023-07-02T12:40:03;18.90;;;10.48;;
16127;SDS011;8168;49.036;7.690;2023-07-02T12:42:34;18.42;;;11.18;;
16127;SDS011;8168;49.036;7.690;2023-07-02T12:45:05;14.63;;;9.20;;
16127;SDS011;8168;49.036;7.690;2023-07-02T12:47:36;19.88;;;10.57;;
16127;SDS011;8168;49.036;7.690;2023-07-02T12:50:08;14.88;;;9.15;;
16127;SDS011;8168;49.036;7.690;2023-07-02T12:52:39;12.95;;;8.63;;
16127;SDS011;8168;49.036;7.690;2023-07-02T12:55:10;15.57;;;9.20;;
16127;SDS011;8168;49.036;7.690;2023-07-02T12:57:40;14.73;;;8.63;;
16127;SDS011;8168;49.036;7.690;2023-07-02T13:00:11;17.27;;;10.50;;
16127;SDS011;8168;49.036;7.690;2023-07-02T13:02:42;13.30;;;8.93;;
16127;SDS011;8168;49.036;7.690;2023-07-02T13:05:13;14.63;;;10.07;;
16127;SDS011;8168;49.036;7.690;2023-07-02T13:07:44;16.83;;;9.75;;
16127;SDS011;8168;49.036;7.690;2023-07-02T13:10:14;17.15;;;10.68;;
16127;SDS011;8168;49.036;7.690;2023-07-02T13:12:45;15.68;;;10.35;;
16127;SDS011;8168;49.036;7.690;2023-07-02T13:15:15;15.25;;;10.00;;
16127;SDS011;8168;49.036;7.690;2023-07-02T13:17:46;14.73;;;9.15;;
16127;SDS011;8168;49.036;7.690;2023-07-02T13:20:17;19.15;;;10.13;;
16127;SDS011;8168;49.036;7.690;2023-07-02T13:22:47;15.57;;;9.90;;
16127;SDS011;8168;49.036;7.690;2023-07-02T13:25:18;15.50;;;10.77;;
16127;SDS011;8168;49.036;7.690;2023-07-02T13:27:49;14.88;;;9.73;;
16127;SDS011;8168;49.036;7.690;2023-07-02T13:30:19;16.33;;;9.45;;
16127;SDS011;8168;49.036;7.690;2023-07-02T13:32:50;14.38;;;9.52;;
16127;SDS011;8168;49.036;7.690;2023-07-02T13:35:21;14.50;;;8.77;;
16127;SDS011;8168;49.036;7.690;2023-07-02T13:37:52;15.63;;;9.38;;
16127;SDS011;8168;49.036;7.690;2023-07-02T13:40:23;16.25;;;9.50;;
16127;SDS011;8168;49.036;7.690;2023-07-02T13:42:53;16.10;;;9.73;;
16127;SDS011;8168;49.036;7.690;2023-07-02T13:45:25;13.57;;;9.23;;
16127;SDS011;8168;49.036;7.690;2023-07-02T13:47:56;14.73;;;9.35;;
16127;SDS011;8168;49.036;7.690;2023-07-02T13:50:27;16.60;;;8.82;;
16127;SDS011;8168;49.036;7.690;2023-07-02T13:52:57;15.57;;;9.35;;
16127;SDS011;8168;49.036;7.690;2023-07-02T13:55:28;15.73;;;9.13;;
16127;SDS011;8168;49.036;7.690;2023-07-02T13:58:00;17.45;;;9.70;;
16127;SDS011;8168;49.036;7.690;2023-07-02T14:00:31;18.10;;;8.57;;
16127;SDS011;8168;49.036;7.690;2023-07-02T14:03:01;17.38;;;9.68;;
16127;SDS011;8168;49.036;7.690;2023-07-02T14:05:32;15.55;;;9.65;;
16127;SDS011;8168;49.036;7.690;2023-07-02T14:08:03;16.27;;;9.38;;
16127;SDS011;8168;49.036;7.690;2023-07-02T14:10:34;14.75;;;9.20;;
16127;SDS011;8168;49.036;7.690;2023-07-02T14:13:04;16.52;;;9.55;;
16127;SDS011;8168;49.036;7.690;2023-07-02T14:15:35;17.70;;;9.07;;
16127;SDS011;8168;49.036;7.690;2023-07-02T14:18:06;15.52;;;9.20;;
16127;SDS011;8168;49.036;7.690;2023-07-02T14:20:36;14.68;;;9.55;;
16127;SDS011;8168;49.036;7.690;2023-07-02T14:23:07;16.42;;;9.35;;
16127;SDS011;8168;49.036;7.690;2023-07-02T14:25:37;14.40;;;8.90;;
16127;SDS011;8168;49.036;7.690;2023-07-02T14:28:08;16.80;;;8.93;;
16127;SDS011;8168;49.036;7.690;2023-07-02T14:30:39;17.40;;;9.95;;
16127;SDS011;8168;49.036;7.690;2023-07-02T14:33:12;16.92;;;9.73;;
16127;SDS011;8168;49.036;7.690;2023-07-02T14:35:44;15.45;;;9.38;;
16127;SDS011;8168;49.036;7.690;2023-07-02T14:38:16;15.45;;;9.15;;
16127;SDS011;8168;49.036;7.690;2023-07-02T14:40:47;16.23;;;9.30;;
16127;SDS011;8168;49.036;7.690;2023-07-02T14:43:18;15.45;;;9.80;;
16127;SDS011;8168;49.036;7.690;2023-07-02T14:45:50;17.45;;;9.50;;
16127;SDS011;8168;49.036;7.690;2023-07-02T14:48:21;16.38;;;8.95;;
16127;SDS011;8168;49.036;7.690;2023-07-02T14:50:53;17.98;;;9.52;;
16127;SDS011;8168;49.036;7.690;2023-07-02T14:53:26;13.98;;;9.40;;
16127;SDS011;8168;49.036;7.690;2023-07-02T14:55:58;13.82;;;9.15;;
16127;SDS011;8168;49.036;7.690;2023-07-02T14:58:30;15.75;;;9.32;;
16127;SDS011;8168;49.036;7.690;2023-07-02T15:01:01;15.93;;;10.25;;
16127;SDS011;8168;49.036;7.690;2023-07-02T15:03:31;15.88;;;9.13;;
16127;SDS011;8168;49.036;7.690;2023-07-02T15:06:09;13.80;;;8.88;;
16127;SDS011;8168;49.036;7.690;2023-07-02T15:08:42;14.35;;;8.52;;
16127;SDS011;8168;49.036;7.690;2023-07-02T15:11:13;13.52;;;7.90;;
16127;SDS011;8168;49.036;7.690;2023-07-02T15:13:45;16.63;;;9.82;;